Time;durP1;ratioP1;P1;durP2;ratioP2;P2;SDS_P1;SDS_P2;PMS_P1;PMS_P2;Temp;Humidity;BMP_temperature;BMP_pressure;BME280_temperature;BME280_humidity;BME280_pressure;Samples;Min_cycle;Max_cycle;Signal;HPM_P1;HPM_P2
2023/11/08 00:00:06;;;;;;;2.22;1.70;;;12.10;77.20;;;;;;5052144;28;20025;-77
2023/11/08 00:02:38;;;;;;;2.65;1.85;;;12.10;77.20;;;;;;5053068;28;20053;-77
2023/11/08 00:05:04;;;;;;;2.05;1.70;;;12.10;77.80;;;;;;5052408;28;20092;-78
2023/11/08 00:07:30;;;;;;;1.77;1.63;;;12.10;77.20;;;;;;5018994;28;20055;-77
2023/11/08 00:09:55;;;;;;;2.28;1.73;;;12.10;77.20;;;;;;5036277;28;20111;-77
2023/11/08 00:12:21;;;;;;;2.17;1.60;;;12.00;77.20;;;;;;5035548;28;20035;-76
2023/11/08 00:14:47;;;;;;;2.70;2.00;;;12.10;77.30;;;;;;5035677;28;20025;-77
2023/11/08 00:17:16;;;;;;;2.20;1.80;;;12.00;77.20;;;;;;5035194;28;20094;-76
2023/11/08 00:19:41;;;;;;;2.03;1.80;;;12.00;77.20;;;;;;5035732;28;20094;-78
2023/11/08 00:22:07;;;;;;;1.83;1.70;;;12.00;77.30;;;;;;5035181;28;20389;-77
2023/11/08 00:24:33;;;;;;;2.28;1.88;;;12.00;77.20;;;;;;5035177;28;20036;-78
2023/11/08 00:26:59;;;;;;;2.53;1.98;;;12.00;77.30;;;;;;5035210;28;20037;-76
2023/11/08 00:29:25;;;;;;;2.13;1.92;;;12.00;77.30;;;;;;5035317;28;20079;-77
2023/11/08 00:31:51;;;;;;;2.85;2.03;;;12.00;77.30;;;;;;5053383;28;20033;-76
2023/11/08 00:34:19;;;;;;;2.08;1.83;;;12.00;77.30;;;;;;5051949;28;20108;-77
2023/11/08 00:36:45;;;;;;;2.85;2.08;;;12.00;77.30;;;;;;5035056;28;20041;-78
2023/11/08 00:39:11;;;;;;;3.10;2.10;;;12.00;77.30;;;;;;5053822;28;20485;-77
2023/11/08 00:41:37;;;;;;;2.78;2.08;;;12.00;77.30;;;;;;5039220;28;20062;-76
2023/11/08 00:44:03;;;;;;;3.05;2.15;;;12.00;77.40;;;;;;5038551;28;20037;-77
2023/11/08 00:46:29;;;;;;;2.03;1.83;;;12.00;77.30;;;;;;5055217;28;20067;-77
2023/11/08 00:48:54;;;;;;;2.08;1.88;;;12.00;77.40;;;;;;5038718;28;20028;-77
2023/11/08 00:51:20;;;;;;;2.60;1.90;;;12.00;77.40;;;;;;5038778;28;20037;-77
2023/11/08 00:53:47;;;;;;;2.50;1.90;;;12.00;77.40;;;;;;5038643;28;20440;-77
2023/11/08 00:56:13;;;;;;;2.38;1.77;;;11.90;77.40;;;;;;5022315;28;20056;-77
2023/11/08 00:58:39;;;;;;;2.08;1.73;;;11.90;77.40;;;;;;5038408;28;20145;-76
2023/11/08 01:01:05;;;;;;;2.08;1.80;;;11.90;77.40;;;;;;5055026;28;20043;-76
2023/11/08 01:03:32;;;;;;;2.55;2.08;;;11.90;77.40;;;;;;5038421;28;20462;-76
2023/11/08 01:05:58;;;;;;;2.72;2.00;;;11.90;77.40;;;;;;5039139;28;20362;-77
2023/11/08 01:08:24;;;;;;;3.35;2.08;;;11.90;77.40;;;;;;5056653;28;20044;-77
2023/11/08 01:10:51;;;;;;;3.47;2.10;;;11.90;77.40;;;;;;5055405;28;20025;-77
2023/11/08 01:13:18;;;;;;;2.00;1.80;;;11.90;77.40;;;;;;5038889;28;20055;-77
2023/11/08 01:15:44;;;;;;;2.45;1.92;;;11.90;77.50;;;;;;5038122;28;20132;-77
2023/11/08 01:18:10;;;;;;;2.50;1.92;;;11.80;77.40;;;;;;5054730;28;20033;-77
2023/11/08 01:20:37;;;;;;;2.00;1.67;;;11.80;77.40;;;;;;5054644;28;20470;-78
2023/11/08 01:23:03;;;;;;;2.15;1.90;;;11.80;77.40;;;;;;5038157;28;20048;-79
2023/11/08 01:25:29;;;;;;;1.70;1.60;;;11.80;77.50;;;;;;5054714;28;20091;-76
2023/11/08 01:27:55;;;;;;;2.90;1.80;;;11.80;77.40;;;;;;5054336;28;20382;-76
2023/11/08 01:30:21;;;;;;;1.67;1.55;;;11.80;77.40;;;;;;5037886;28;20048;-77
2023/11/08 01:32:47;;;;;;;1.70;1.60;;;11.80;77.50;;;;;;5055065;28;20040;-77
2023/11/08 01:35:13;;;;;;;2.25;1.75;;;11.80;77.50;;;;;;5054335;28;20037;-77
2023/11/08 01:37:39;;;;;;;2.03;1.80;;;11.80;77.50;;;;;;5054468;28;20029;-77
2023/11/08 01:40:09;;;;;;;2.28;1.80;;;11.70;77.40;;;;;;5054325;28;20033;-78
2023/11/08 01:42:35;;;;;;;2.38;1.92;;;11.80;77.50;;;;;;5054487;28;20029;-77
2023/11/08 01:45:02;;;;;;;3.15;2.20;;;11.80;77.50;;;;;;5054150;28;20032;-77
2023/11/08 01:47:29;;;;;;;2.08;1.70;;;11.70;77.50;;;;;;5037602;28;20041;-76
2023/11/08 01:49:55;;;;;;;2.13;1.92;;;11.70;77.50;;;;;;5036288;28;20021;-77
2023/11/08 01:52:22;;;;;;;1.98;1.77;;;11.70;77.50;;;;;;5054368;28;20036;-77
2023/11/08 02:00:28;;;;;;;2.17;1.98;;;11.70;77.50;;;;;;5145590;23;20075;-76
2023/11/08 02:02:55;;;;;;;2.35;1.95;;;11.70;77.50;;;;;;4905755;29;20047;-75
2023/11/08 02:05:22;;;;;;;2.65;1.98;;;11.70;77.50;;;;;;4921389;29;20110;-77
2023/11/08 02:07:48;;;;;;;1.95;1.80;;;11.60;77.50;;;;;;4920838;29;20385;-75
2023/11/08 02:10:14;;;;;;;2.03;1.83;;;11.70;77.60;;;;;;4905804;29;20068;-75
2023/11/08 02:12:44;;;;;;;2.17;1.88;;;11.70;77.60;;;;;;4905450;29;20087;-75
2023/11/08 02:15:11;;;;;;;2.00;1.60;;;11.70;77.60;;;;;;4920674;29;20063;-75
2023/11/08 02:17:37;;;;;;;2.40;1.88;;;11.60;77.50;;;;;;4905316;29;20049;-75
2023/11/08 02:20:06;;;;;;;2.00;1.80;;;11.70;77.60;;;;;;4905656;29;20058;-76
2023/11/08 02:22:32;;;;;;;2.28;1.73;;;11.60;77.50;;;;;;4921393;29;20024;-76
2023/11/08 02:24:58;;;;;;;2.47;1.67;;;11.70;78.20;;;;;;4889251;29;20035;-77
2023/11/08 02:27:24;;;;;;;2.10;1.70;;;11.70;77.60;;;;;;4920701;29;20043;-74
2023/11/08 02:29:50;;;;;;;3.30;2.10;;;11.60;77.60;;;;;;4904672;29;20443;-75
2023/11/08 02:32:15;;;;;;;2.92;1.90;;;11.60;77.50;;;;;;4905186;29;20036;-77
2023/11/08 02:34:41;;;;;;;2.28;1.92;;;11.60;77.50;;;;;;4904708;29;20035;-76
2023/11/08 02:37:07;;;;;;;3.05;1.90;;;11.60;77.60;;;;;;4904681;29;20054;-76
2023/11/08 02:39:33;;;;;;;2.00;1.80;;;11.60;77.60;;;;;;4904900;29;20087;-77
2023/11/08 02:41:59;;;;;;;2.67;2.08;;;11.60;77.60;;;;;;4904497;29;20032;-75
2023/11/08 02:44:26;;;;;;;2.80;2.17;;;11.60;77.50;;;;;;4937776;29;20032;-76
2023/11/08 02:46:52;;;;;;;2.38;1.92;;;11.60;77.60;;;;;;4937444;29;20032;-76
2023/11/08 02:49:18;;;;;;;2.00;1.80;;;11.60;77.60;;;;;;4937718;29;20495;-75
2023/11/08 02:51:44;;;;;;;2.65;1.80;;;11.60;77.60;;;;;;4920777;29;20416;-76
2023/11/08 02:54:10;;;;;;;2.13;1.92;;;11.60;77.60;;;;;;4920057;29;20040;-76
2023/11/08 02:56:40;;;;;;;2.78;1.85;;;11.60;77.60;;;;;;4920698;29;20114;-77
2023/11/08 02:59:06;;;;;;;2.53;1.90;;;11.60;77.60;;;;;;4919813;29;20070;-76
2023/11/08 03:01:32;;;;;;;2.92;2.15;;;11.60;77.60;;;;;;4904487;29;20048;-76
2023/11/08 03:03:58;;;;;;;1.70;1.60;;;11.60;77.70;;;;;;4888661;29;20039;-77
2023/11/08 03:06:24;;;;;;;2.42;1.90;;;11.60;77.60;;;;;;4919814;29;20042;-76
2023/11/08 03:08:53;;;;;;;2.35;2.10;;;11.70;77.70;;;;;;4919826;29;20122;-77
2023/11/08 03:11:19;;;;;;;3.00;1.95;;;11.70;77.70;;;;;;4919744;29;20042;-78
2023/11/08 03:13:45;;;;;;;2.25;2.05;;;11.70;77.70;;;;;;4919688;29;20032;-78
2023/11/08 03:16:11;;;;;;;2.55;1.98;;;11.60;77.60;;;;;;4904023;29;20024;-77
2023/11/08 03:18:36;;;;;;;2.75;2.20;;;11.60;77.60;;;;;;4903894;29;20103;-78
2023/11/08 03:21:02;;;;;;;2.72;2.28;;;11.60;77.60;;;;;;4919734;29;20068;-80
2023/11/08 03:23:28;;;;;;;2.40;1.90;;;11.60;78.20;;;;;;4873056;29;20036;-77
2023/11/08 03:25:54;;;;;;;2.35;1.95;;;11.70;77.70;;;;;;4919502;29;20036;-77
2023/11/08 03:28:20;;;;;;;3.80;2.33;;;11.60;77.60;;;;;;4903925;29;20040;-77
2023/11/08 03:30:46;;;;;;;3.03;2.03;;;11.60;77.60;;;;;;4919209;29;20085;-77
2023/11/08 03:33:12;;;;;;;2.60;2.15;;;11.60;77.60;;;;;;4904494;29;20063;-77
2023/11/08 03:35:37;;;;;;;2.60;2.40;;;11.60;77.70;;;;;;4903979;29;20508;-79
2023/11/08 03:38:03;;;;;;;2.65;2.15;;;11.60;77.70;;;;;;4887825;29;20067;-77
2023/11/08 03:40:29;;;;;;;2.38;2.03;;;11.60;77.70;;;;;;4919513;29;20032;-77
2023/11/08 03:42:56;;;;;;;3.03;2.40;;;11.70;77.70;;;;;;4903860;29;20063;-77
2023/11/08 03:45:22;;;;;;;2.50;2.15;;;11.60;77.70;;;;;;4936689;29;20036;-78
2023/11/08 03:47:48;;;;;;;2.45;2.05;;;11.60;77.70;;;;;;4936405;29;20097;-78
2023/11/08 03:50:14;;;;;;;3.22;2.22;;;11.70;77.80;;;;;;4920099;29;20436;-77
2023/11/08 03:52:40;;;;;;;2.63;2.08;;;11.70;77.70;;;;;;4920238;29;20106;-78
2023/11/08 03:55:07;;;;;;;3.97;2.40;;;11.70;77.80;;;;;;4903614;29;20036;-77
2023/11/08 03:57:34;;;;;;;2.97;2.22;;;11.60;77.70;;;;;;4919807;29;20036;-77
2023/11/08 04:00:00;;;;;;;2.72;2.05;;;11.60;77.80;;;;;;4916192;29;20067;-77
2023/11/08 04:02:25;;;;;;;3.45;2.30;;;11.60;77.80;;;;;;4900593;29;20043;-77
2023/11/08 04:04:52;;;;;;;2.90;2.28;;;11.60;77.70;;;;;;4916674;29;20028;-77
2023/11/08 04:07:21;;;;;;;2.72;2.20;;;11.60;77.70;;;;;;4916093;29;20036;-77
2023/11/08 04:09:47;;;;;;;2.42;2.10;;;11.60;77.80;;;;;;4931892;29;20032;-78
2023/11/08 04:12:13;;;;;;;3.60;2.33;;;11.60;77.80;;;;;;4885067;29;20485;-77
2023/11/08 04:14:40;;;;;;;3.53;2.35;;;11.60;77.80;;;;;;4887437;29;20035;-77
2023/11/08 04:17:10;;;;;;;2.42;1.98;;;11.60;77.70;;;;;;4919514;29;20051;-77
2023/11/08 04:19:36;;;;;;;3.20;2.53;;;11.60;77.70;;;;;;4919592;29;20032;-78
2023/11/08 04:22:03;;;;;;;2.65;1.98;;;11.60;77.80;;;;;;4920507;29;20032;-77
2023/11/08 04:24:29;;;;;;;2.38;2.10;;;11.60;77.80;;;;;;4919644;29;20056;-77
2023/11/08 04:26:55;;;;;;;2.05;1.85;;;11.60;77.80;;;;;;4888131;29;20079;-76
2023/11/08 04:29:20;;;;;;;2.17;1.98;;;11.60;77.80;;;;;;4919343;29;20032;-78
2023/11/08 04:31:46;;;;;;;2.42;2.03;;;11.60;77.80;;;;;;4920380;29;20028;-77
2023/11/08 04:34:15;;;;;;;3.10;2.40;;;11.60;77.80;;;;;;4919425;29;20477;-77
2023/11/08 04:36:41;;;;;;;2.55;2.05;;;11.60;77.80;;;;;;4873413;29;20028;-77
2023/11/08 04:39:08;;;;;;;2.90;2.25;;;11.60;77.80;;;;;;4919096;29;20036;-77
2023/11/08 04:41:34;;;;;;;2.33;1.92;;;11.60;77.80;;;;;;4920316;29;20064;-77
2023/11/08 04:43:59;;;;;;;3.22;2.17;;;11.60;77.80;;;;;;4920658;29;20495;-77
2023/11/08 04:46:25;;;;;;;2.35;1.92;;;11.60;77.80;;;;;;4887991;29;20063;-78
2023/11/08 04:48:51;;;;;;;2.67;1.95;;;11.60;77.80;;;;;;4920544;29;20106;-77
2023/11/08 04:51:17;;;;;;;3.03;2.20;;;11.60;77.80;;;;;;4887821;29;20544;-78
2023/11/08 04:53:42;;;;;;;4.05;2.20;;;11.60;77.80;;;;;;4918595;29;20024;-77
2023/11/08 04:56:08;;;;;;;3.35;1.88;;;11.60;77.80;;;;;;4918978;29;20067;-77
2023/11/08 04:58:34;;;;;;;2.70;2.00;;;11.60;77.80;;;;;;4887826;29;20100;-77
2023/11/08 05:01:00;;;;;;;2.47;1.88;;;11.60;77.80;;;;;;4922399;29;20091;-76
2023/11/08 05:03:26;;;;;;;2.90;2.10;;;11.60;77.80;;;;;;4939011;29;20038;-77
2023/11/08 05:05:51;;;;;;;2.13;1.88;;;11.60;77.80;;;;;;4938621;29;20122;-77
2023/11/08 05:08:17;;;;;;;3.38;2.70;;;11.60;77.80;;;;;;4938739;29;20035;-78
2023/11/08 05:10:43;;;;;;;2.80;2.05;;;11.60;77.80;;;;;;4921770;29;20146;-76
2023/11/08 05:13:09;;;;;;;2.25;1.77;;;11.60;77.80;;;;;;4905888;29;20032;-77
2023/11/08 05:15:35;;;;;;;1.92;1.70;;;11.60;77.80;;;;;;4890447;29;20028;-81
2023/11/08 05:18:01;;;;;;;2.42;1.77;;;11.60;77.80;;;;;;4921941;29;20036;-77
2023/11/08 05:20:27;;;;;;;2.65;2.03;;;11.60;77.80;;;;;;4938687;29;20039;-77
2023/11/08 05:22:55;;;;;;;2.28;2.00;;;11.60;77.80;;;;;;4921974;29;20392;-77
2023/11/08 05:25:21;;;;;;;2.90;1.85;;;11.60;77.80;;;;;;4938960;29;20090;-77
2023/11/08 05:27:47;;;;;;;2.15;1.80;;;11.60;77.80;;;;;;4921456;29;20476;-77
2023/11/08 05:30:15;;;;;;;2.95;1.90;;;11.60;77.80;;;;;;4906056;29;20035;-77
2023/11/08 05:32:43;;;;;;;2.60;1.80;;;11.60;77.90;;;;;;4906001;29;20036;-77
2023/11/08 05:35:12;;;;;;;2.03;1.85;;;11.60;77.80;;;;;;4890788;29;20040;-78
2023/11/08 05:37:39;;;;;;;1.80;1.70;;;11.60;77.80;;;;;;4921323;29;20399;-77
2023/11/08 05:40:09;;;;;;;2.65;2.10;;;11.60;77.80;;;;;;4890161;29;20384;-77
2023/11/08 05:42:35;;;;;;;2.88;1.70;;;11.50;77.80;;;;;;4921764;29;20059;-77
2023/11/08 05:45:01;;;;;;;2.65;2.03;;;11.60;77.80;;;;;;4905679;29;20535;-77
2023/11/08 05:47:27;;;;;;;2.58;1.90;;;11.60;77.90;;;;;;4906225;29;20486;-77
2023/11/08 05:49:53;;;;;;;2.55;1.88;;;11.60;77.80;;;;;;4905456;29;20043;-77
2023/11/08 05:52:19;;;;;;;2.03;1.83;;;11.60;77.90;;;;;;4920811;29;20030;-78
2023/11/08 05:54:44;;;;;;;2.45;1.73;;;11.50;77.80;;;;;;4920968;29;20064;-77
2023/11/08 05:57:10;;;;;;;3.22;1.60;;;11.60;77.80;;;;;;4921217;29;20348;-78
2023/11/08 05:59:36;;;;;;;2.47;2.25;;;11.50;77.80;;;;;;4917576;29;20059;-78
2023/11/08 06:02:02;;;;;;;1.73;1.60;;;11.50;77.80;;;;;;4917858;29;20032;-77
2023/11/08 06:04:28;;;;;;;2.22;1.92;;;11.50;77.80;;;;;;4887242;29;20035;-78
2023/11/08 06:06:54;;;;;;;2.65;1.90;;;11.50;77.80;;;;;;4919346;29;20472;-76
2023/11/08 06:09:20;;;;;;;2.67;1.75;;;11.50;77.80;;;;;;4901975;29;20476;-77
2023/11/08 06:11:46;;;;;;;3.30;1.75;;;11.50;77.80;;;;;;4901830;29;20036;-77
2023/11/08 06:14:12;;;;;;;2.03;1.70;;;11.50;77.80;;;;;;4917818;29;20028;-77
2023/11/08 06:16:40;;;;;;;2.45;1.63;;;11.50;77.90;;;;;;4901705;29;20484;-77
2023/11/08 06:19:06;;;;;;;2.05;1.70;;;11.50;77.80;;;;;;4917840;29;20103;-77
2023/11/08 06:21:32;;;;;;;2.00;1.65;;;11.50;77.80;;;;;;4919180;29;20028;-76
2023/11/08 06:23:59;;;;;;;1.50;1.40;;;11.50;77.80;;;;;;4901671;29;20036;-76
2023/11/08 06:26:25;;;;;;;1.63;1.50;;;11.50;77.90;;;;;;4901686;29;20036;-77
2023/11/08 06:28:51;;;;;;;1.60;1.50;;;11.50;77.90;;;;;;4917090;29;20125;-77
2023/11/08 06:31:17;;;;;;;2.17;1.70;;;11.50;77.80;;;;;;4933291;29;20033;-77
2023/11/08 06:33:43;;;;;;;1.75;1.63;;;11.40;77.80;;;;;;4917089;29;20504;-77
2023/11/08 06:36:09;;;;;;;2.60;1.70;;;11.50;77.80;;;;;;4900817;29;20488;-76
2023/11/08 06:38:35;;;;;;;1.92;1.60;;;11.50;77.80;;;;;;4917204;29;20040;-78
2023/11/08 06:41:01;;;;;;;1.60;1.50;;;11.40;77.80;;;;;;4916966;29;20043;-77
2023/11/08 06:43:27;;;;;;;2.78;1.80;;;11.40;77.80;;;;;;4901556;29;20036;-79
2023/11/08 06:45:52;;;;;;;2.03;1.50;;;11.40;77.80;;;;;;4901183;29;20115;-77
2023/11/08 06:48:18;;;;;;;2.60;1.30;;;11.40;77.80;;;;;;4916881;29;20119;-77
2023/11/08 06:50:44;;;;;;;2.00;1.80;;;11.40;77.80;;;;;;4916947;29;20039;-77
2023/11/08 06:53:11;;;;;;;2.20;1.63;;;11.40;77.80;;;;;;4918089;29;20029;-77
2023/11/08 06:55:38;;;;;;;1.70;1.60;;;11.40;77.80;;;;;;4918062;29;20032;-77
2023/11/08 06:58:05;;;;;;;2.35;1.60;;;11.40;77.80;;;;;;4918004;29;20042;-77
2023/11/08 07:00:33;;;;;;;2.15;1.60;;;11.40;77.80;;;;;;4916914;29;20044;-77
2023/11/08 07:02:59;;;;;;;1.40;1.30;;;11.40;77.80;;;;;;4886491;29;20425;-77
2023/11/08 07:05:25;;;;;;;2.20;1.55;;;11.40;77.80;;;;;;4916671;29;20027;-78
2023/11/08 07:07:50;;;;;;;2.05;1.65;;;11.40;77.80;;;;;;4870357;29;20064;-78
2023/11/08 07:10:16;;;;;;;2.28;1.50;;;11.40;77.90;;;;;;4869926;29;20471;-77
2023/11/08 07:12:42;;;;;;;1.48;1.30;;;11.40;77.80;;;;;;4916792;29;20029;-77
2023/11/08 07:15:08;;;;;;;2.10;1.40;;;11.30;77.80;;;;;;4917985;29;20036;-76
2023/11/08 07:17:36;;;;;;;2.55;1.50;;;11.30;77.80;;;;;;4900528;29;20044;-77
2023/11/08 07:20:06;;;;;;;1.45;1.35;;;11.30;77.80;;;;;;4916771;29;20059;-77
2023/11/08 07:22:32;;;;;;;1.98;1.50;;;11.30;77.80;;;;;;4917489;29;20127;-77
2023/11/08 07:24:58;;;;;;;2.03;1.63;;;11.30;77.80;;;;;;4900678;29;20043;-77
2023/11/08 07:27:25;;;;;;;1.52;1.40;;;11.30;77.80;;;;;;4900615;29;20040;-77
2023/11/08 07:29:51;;;;;;;2.17;1.60;;;11.30;77.80;;;;;;4916595;29;20032;-77
2023/11/08 07:32:17;;;;;;;1.42;1.25;;;11.30;77.80;;;;;;4917512;29;20036;-76
2023/11/08 07:34:43;;;;;;;2.15;1.30;;;11.30;77.80;;;;;;4916857;29;20034;-76
2023/11/08 07:37:09;;;;;;;2.03;1.35;;;11.30;77.80;;;;;;4917884;29;20123;-75
2023/11/08 07:39:35;;;;;;;1.65;1.40;;;11.30;77.80;;;;;;4900569;29;20409;-76
2023/11/08 07:42:02;;;;;;;1.45;1.33;;;11.30;77.80;;;;;;4884824;29;20119;-76
2023/11/08 07:44:30;;;;;;;2.55;1.50;;;11.30;77.80;;;;;;4900865;29;20070;-75
2023/11/08 07:46:57;;;;;;;1.52;1.30;;;11.30;77.80;;;;;;4917121;29;20389;-75
2023/11/08 07:49:23;;;;;;;3.08;1.50;;;11.30;77.90;;;;;;4920356;29;20029;-75
2023/11/08 07:51:51;;;;;;;1.33;1.25;;;11.20;77.80;;;;;;4920318;29;20052;-76
2023/11/08 07:54:17;;;;;;;1.40;1.30;;;11.20;77.80;;;;;;4920378;29;20119;-76
2023/11/08 07:56:43;;;;;;;1.50;1.40;;;11.30;77.90;;;;;;4919767;29;20028;-77
2023/11/08 07:59:09;;;;;;;1.30;1.20;;;11.20;77.80;;;;;;4907594;29;20052;-77
2023/11/08 08:01:35;;;;;;;1.85;1.40;;;11.30;77.90;;;;;;4923401;29;20122;-73
2023/11/08 08:04:00;;;;;;;1.95;1.55;;;11.20;77.80;;;;;;4907497;29;20179;-74
2023/11/08 08:06:26;;;;;;;1.40;1.30;;;11.20;77.80;;;;;;4907159;29;20066;-74
2023/11/08 08:08:52;;;;;;;1.98;1.40;;;11.20;77.90;;;;;;4891890;29;20046;-74
2023/11/08 08:11:18;;;;;;;1.50;1.40;;;11.20;77.80;;;;;;4922734;29;20095;-74
2023/11/08 08:13:45;;;;;;;1.60;1.40;;;11.20;77.80;;;;;;4922884;29;20036;-74
2023/11/08 08:16:12;;;;;;;1.60;1.50;;;11.20;77.80;;;;;;4907383;29;20126;-75
2023/11/08 08:18:38;;;;;;;1.40;1.30;;;11.20;77.90;;;;;;4939570;29;20107;-75
2023/11/08 08:21:04;;;;;;;1.50;1.40;;;11.20;77.90;;;;;;4906916;29;20032;-79
2023/11/08 08:23:29;;;;;;;1.60;1.40;;;11.20;77.90;;;;;;4939943;29;20036;-75
2023/11/08 08:25:56;;;;;;;1.40;1.27;;;11.20;77.90;;;;;;4922799;29;20392;-75
2023/11/08 08:28:22;;;;;;;1.90;1.48;;;11.20;77.90;;;;;;4922407;29;20067;-75
2023/11/08 08:30:48;;;;;;;1.30;1.20;;;11.20;77.90;;;;;;4891172;29;20040;-76
2023/11/08 08:33:15;;;;;;;2.72;1.70;;;11.20;77.90;;;;;;4923267;29;20044;-76
2023/11/08 08:35:41;;;;;;;2.00;1.42;;;11.20;77.90;;;;;;4891501;29;20035;-77
2023/11/08 08:38:06;;;;;;;2.20;1.30;;;11.10;77.80;;;;;;4939378;29;20044;-77
2023/11/08 08:40:32;;;;;;;2.28;1.33;;;11.20;78.50;;;;;;4922194;29;20039;-77
2023/11/08 08:42:58;;;;;;;1.40;1.30;;;11.20;77.90;;;;;;4922269;29;20074;-76
2023/11/08 08:45:24;;;;;;;1.70;1.40;;;11.20;77.90;;;;;;4906566;29;20032;-76
2023/11/08 08:47:52;;;;;;;1.58;1.48;;;11.20;77.90;;;;;;4922362;29;20476;-76
2023/11/08 08:50:18;;;;;;;2.22;1.50;;;11.20;77.90;;;;;;4891203;29;20046;-76
2023/11/08 08:52:45;;;;;;;1.30;1.20;;;11.20;77.90;;;;;;4907365;29;20028;-76
2023/11/08 08:55:15;;;;;;;1.67;1.30;;;11.20;78.20;;;;;;4922075;29;20028;-77
2023/11/08 08:57:43;;;;;;;1.92;1.40;;;11.20;77.90;;;;;;4922333;29;20042;-76
2023/11/08 09:00:09;;;;;;;2.13;1.42;;;11.20;77.90;;;;;;4921529;29;20476;-77
2023/11/08 09:02:35;;;;;;;3.17;1.45;;;11.20;77.90;;;;;;4922124;29;20087;-78
2023/11/08 09:05:02;;;;;;;3.88;1.48;;;11.10;77.80;;;;;;4921649;29;20484;-76
2023/11/08 09:07:28;;;;;;;1.38;1.27;;;11.20;77.80;;;;;;4922034;29;20094;-76
2023/11/08 09:09:53;;;;;;;2.80;1.55;;;11.20;77.80;;;;;;4906335;29;20399;-76
2023/11/08 09:12:20;;;;;;;1.50;1.40;;;11.20;77.80;;;;;;4922356;29;20039;-76
2023/11/08 09:14:51;;;;;;;1.50;1.40;;;11.20;78.10;;;;;;4906505;29;20118;-77
2023/11/08 09:17:17;;;;;;;2.33;1.50;;;11.20;77.90;;;;;;4938512;29;20039;-76
2023/11/08 09:19:43;;;;;;;1.40;1.30;;;11.20;77.90;;;;;;4921598;29;20036;-78
2023/11/08 09:22:08;;;;;;;1.55;1.40;;;11.20;77.90;;;;;;4921717;29;20428;-78
2023/11/08 09:24:34;;;;;;;1.58;1.40;;;11.20;77.80;;;;;;4921863;29;20035;-76
2023/11/08 09:27:00;;;;;;;2.38;1.50;;;11.20;77.80;;;;;;4890356;29;20395;-76
2023/11/08 09:29:26;;;;;;;2.70;1.58;;;11.20;77.80;;;;;;4906657;29;20028;-77
2023/11/08 09:31:52;;;;;;;2.65;1.60;;;11.30;77.90;;;;;;4905906;29;20043;-76
2023/11/08 09:34:18;;;;;;;1.85;1.55;;;11.30;77.90;;;;;;4921448;29;20444;-77
2023/11/08 09:36:46;;;;;;;2.17;1.60;;;11.30;77.90;;;;;;4906403;29;20035;-76
2023/11/08 09:39:13;;;;;;;1.67;1.58;;;11.30;78.00;;;;;;4906017;29;20056;-76
2023/11/08 09:41:39;;;;;;;1.98;1.70;;;11.30;77.90;;;;;;4922286;29;20032;-76
2023/11/08 09:44:06;;;;;;;2.30;1.77;;;11.30;77.90;;;;;;4921492;29;20102;-76
2023/11/08 09:46:33;;;;;;;2.88;1.75;;;11.30;77.90;;;;;;4938481;29;20091;-76
2023/11/08 09:48:59;;;;;;;2.60;1.55;;;11.30;77.90;;;;;;4921334;29;20074;-76
2023/11/08 09:51:26;;;;;;;2.13;1.50;;;11.40;78.00;;;;;;4921360;29;20155;-76
2023/11/08 09:53:52;;;;;;;1.73;1.60;;;11.40;78.00;;;;;;4921287;29;20032;-76
2023/11/08 09:56:19;;;;;;;2.53;1.65;;;11.40;78.00;;;;;;4905404;29;20036;-76
2023/11/08 09:58:45;;;;;;;2.92;1.70;;;11.40;78.00;;;;;;4905740;29;20145;-76
2023/11/08 10:01:18;;;;;;;2.67;1.50;;;11.40;78.00;;;;;;4905279;29;20098;-75
2023/11/08 10:03:44;;;;;;;2.50;1.67;;;11.40;78.00;;;;;;4938154;29;20036;-76
2023/11/08 10:06:11;;;;;;;2.22;1.75;;;11.50;78.10;;;;;;4938371;29;20044;-76
2023/11/08 10:08:37;;;;;;;3.40;1.75;;;11.50;78.00;;;;;;4889757;29;20048;-76
2023/11/08 10:11:05;;;;;;;2.38;1.50;;;11.50;78.00;;;;;;4920321;29;20032;-78
2023/11/08 10:13:42;;;;;;;2.22;1.60;;;11.50;78.00;;;;;;4920856;29;20042;-76
2023/11/08 10:16:09;;;;;;;1.52;1.35;;;11.50;78.10;;;;;;4921167;29;20036;-76
2023/11/08 10:18:35;;;;;;;2.00;1.63;;;11.50;78.00;;;;;;4889562;29;20059;-76
2023/11/08 10:21:08;;;;;;;3.47;1.80;;;11.50;78.00;;;;;;4905286;29;20357;-76
2023/11/08 10:23:34;;;;;;;2.05;1.60;;;11.60;78.10;;;;;;4905623;29;20495;-76
2023/11/08 10:26:21;;;;;;;2.53;1.60;;;11.60;78.00;;;;;;4904860;29;20045;-76
2023/11/08 10:29:01;;;;;;;2.63;1.70;;;11.60;78.10;;;;;;4920573;29;20031;-77
2023/11/08 10:31:47;;;;;;;1.80;1.50;;;11.70;78.10;;;;;;4905064;29;20032;-76
2023/11/08 10:34:15;;;;;;;1.73;1.45;;;11.70;78.10;;;;;;4904668;29;20075;-77
2023/11/08 10:36:41;;;;;;;1.75;1.40;;;11.70;78.00;;;;;;4920897;29;20036;-76
2023/11/08 10:39:13;;;;;;;2.45;1.60;;;11.80;78.00;;;;;;4920392;29;20039;-76
2023/11/08 10:41:49;;;;;;;2.40;1.50;;;11.80;78.00;;;;;;4904187;29;20035;-75
2023/11/08 10:44:22;;;;;;;2.95;1.70;;;11.80;78.00;;;;;;4920090;29;20036;-76
2023/11/08 10:46:56;;;;;;;2.72;1.73;;;11.80;78.00;;;;;;4920214;29;20055;-76
2023/11/08 10:49:23;;;;;;;2.25;1.60;;;11.90;78.10;;;;;;4919959;29;20032;-75
2023/11/08 10:51:50;;;;;;;2.05;1.60;;;11.90;77.90;;;;;;4904391;29;20091;-75
2023/11/08 10:54:16;;;;;;;2.95;1.73;;;11.90;77.90;;;;;;4936844;29;20063;-75
2023/11/08 10:56:45;;;;;;;1.40;1.30;;;12.00;77.90;;;;;;4920747;29;20047;-75
2023/11/08 10:59:12;;;;;;;2.55;1.45;;;12.00;77.90;;;;;;4919609;29;20402;-75
2023/11/08 11:01:41;;;;;;;3.05;1.60;;;12.00;77.90;;;;;;4904180;29;20046;-75
2023/11/08 11:04:11;;;;;;;1.58;1.38;;;12.00;77.90;;;;;;4905494;29;20046;-76
2023/11/08 11:06:39;;;;;;;2.10;1.40;;;12.00;78.50;;;;;;4889731;29;20087;-75
2023/11/08 11:09:12;;;;;;;1.77;1.45;;;12.00;77.80;;;;;;4935787;29;20044;-75
2023/11/08 11:11:50;;;;;;;1.88;1.45;;;12.10;77.90;;;;;;4936868;29;20061;-76
2023/11/08 11:14:27;;;;;;;3.28;1.70;;;12.10;77.90;;;;;;4936563;29;20396;-75
2023/11/08 11:17:16;;;;;;;2.15;1.60;;;12.10;77.90;;;;;;4919447;29;20035;-75
2023/11/08 11:19:46;;;;;;;2.50;1.63;;;12.20;77.90;;;;;;4919853;29;20051;-75
2023/11/08 11:22:18;;;;;;;2.33;1.60;;;12.20;77.80;;;;;;4919436;29;20031;-75
2023/11/08 11:24:45;;;;;;;1.88;1.60;;;12.20;77.80;;;;;;4903651;29;20040;-76
2023/11/08 11:27:34;;;;;;;1.63;1.38;;;12.20;77.80;;;;;;4904296;29;20035;-75
2023/11/08 11:30:21;;;;;;;2.17;1.67;;;12.20;77.90;;;;;;4919592;29;20111;-76
2023/11/08 11:32:50;;;;;;;2.40;1.33;;;12.30;77.90;;;;;;4904022;29;20349;-76
2023/11/08 11:35:20;;;;;;;2.03;1.52;;;12.30;77.80;;;;;;4919475;29;20040;-76
2023/11/08 11:38:07;;;;;;;2.15;1.35;;;12.30;77.80;;;;;;4904042;29;20034;-77
2023/11/08 11:40:38;;;;;;;2.92;1.70;;;12.30;77.80;;;;;;4903918;29;20487;-76
2023/11/08 11:43:38;;;;;;;2.45;1.50;;;12.30;77.70;;;;;;4919396;29;20403;-76
2023/11/08 11:46:05;;;;;;;2.75;1.67;;;12.30;77.80;;;;;;4936435;29;20468;-77
2023/11/08 11:48:34;;;;;;;2.10;1.42;;;12.40;77.80;;;;;;4936164;29;20087;-77
2023/11/08 11:51:01;;;;;;;2.05;1.50;;;12.40;77.80;;;;;;4888123;29;20388;-76
2023/11/08 11:53:29;;;;;;;1.77;1.40;;;12.40;77.80;;;;;;4919321;29;20031;-77
2023/11/08 11:56:05;;;;;;;2.38;1.50;;;12.40;77.80;;;;;;4919090;29;20028;-77
2023/11/08 11:58:31;;;;;;;1.30;1.20;;;12.40;77.80;;;;;;4936050;29;20035;-77
2023/11/08 12:00:58;;;;;;;1.85;1.30;;;12.50;77.80;;;;;;4919881;29;20485;-77
2023/11/08 12:03:26;;;;;;;1.80;1.42;;;12.50;77.80;;;;;;4919595;29;20084;-79
2023/11/08 12:05:56;;;;;;;1.77;1.23;;;12.50;77.80;;;;;;4904314;29;20059;-77
2023/11/08 12:08:26;;;;;;;1.98;1.50;;;12.50;77.80;;;;;;4936367;29;20040;-77
2023/11/08 12:11:13;;;;;;;3.13;1.50;;;12.60;77.80;;;;;;4903165;29;20035;-78
2023/11/08 12:13:49;;;;;;;1.95;1.40;;;12.60;77.90;;;;;;4919245;29;20036;-79
2023/11/08 12:16:16;;;;;;;1.42;1.20;;;12.60;77.80;;;;;;4919233;29;20038;-78
2023/11/08 12:18:42;;;;;;;1.60;1.30;;;12.60;77.70;;;;;;4903306;29;20032;-77
2023/11/08 12:21:09;;;;;;;2.30;1.60;;;12.60;77.70;;;;;;4936362;29;20047;-77
2023/11/08 12:23:36;;;;;;;2.13;1.50;;;12.70;77.80;;;;;;4903441;29;20031;-77
2023/11/08 12:26:02;;;;;;;1.63;1.50;;;12.70;77.70;;;;;;4919101;29;20031;-78
2023/11/08 12:28:29;;;;;;;2.55;1.58;;;12.70;77.60;;;;;;4903318;29;20036;-78
2023/11/08 12:31:10;;;;;;;1.75;1.42;;;12.70;77.60;;;;;;4935805;29;20111;-77
2023/11/08 12:33:36;;;;;;;1.65;1.20;;;12.80;77.60;;;;;;4903976;29;20046;-77
2023/11/08 12:36:05;;;;;;;2.33;1.45;;;12.80;77.50;;;;;;4922456;29;20480;-79
2023/11/08 12:38:34;;;;;;;1.90;1.30;;;12.80;77.50;;;;;;4922663;29;20047;-78
2023/11/08 12:41:05;;;;;;;2.25;1.20;;;12.90;77.50;;;;;;4939252;29;20027;-78
2023/11/08 12:43:31;;;;;;;1.83;1.50;;;12.90;77.40;;;;;;4922435;29;20472;-78
2023/11/08 12:46:09;;;;;;;3.00;1.50;;;12.90;77.30;;;;;;4922609;29;20384;-77
2023/11/08 12:48:37;;;;;;;1.50;1.25;;;12.90;77.30;;;;;;4906760;29;20101;-75
2023/11/08 12:51:08;;;;;;;1.90;1.25;;;12.90;77.20;;;;;;4939096;29;20461;-75
2023/11/08 12:53:37;;;;;;;2.42;1.33;;;13.00;77.30;;;;;;4906599;29;20028;-75